Lower Lake, CA

7:06 PM PDT on March 29, 2015 (GMT -0700)
Deerscape at Rancho Sendero | | Change Station
CLOSE
Current Station
Personal Weather Station
Location: Lower Lake, CA
Elevation: 1404 ft
Nearby Weather Stations

Elev 1404 ft 38.88 °N, 122.60 °W | Updated 5 seconds ago

Clear
Clear
73.8 °F
Feels Like 77 °F
N
0.0
Wind Variable Wind from SE
Gusts 0.0 mph

Today
High -- | Low -- °F
--% Chance of Precip.
Yesterday
High -- | Low -- °F
Precip. -- in
6:59 AM 7:31 PM
Waxing Gibbous, 76% visible
Pressure 29.97 in
Visibility 10.0 miles
Clouds Scattered Clouds 20000 ft
Heat Index 77 °F
Dew Point 48 °F
Humidity 40%
Rainfall 0.00 in
Snow Depth Not available.
UV 0.0 out of 12
Pollen 10.10 out of 12
Air Quality Not available.
Flu Activity Not available.
METAR KSTS 300153Z 15007KT 10SM SCT200 21/09 A2998 RMK AO2 SLP148 T02060089

More Conditions Fewer Conditions

Pressure 29.97 in
Visibility 10.0 miles
Clouds Scattered Clouds 20000 ft
Heat Index 77 °F
Dew Point 48 °F
Humidity 40%
Rainfall 0.00 in
Snow Depth Not available.
UV 0.0 out of 12
Pollen 10.10 out of 12
Air Quality Not available.
Flu Activity Not available.
METAR KSTS 300153Z 15007KT 10SM SCT200 21/09 A2998 RMK AO2 SLP148 T02060089

More Conditions Fewer Conditions

10-Day Weather Forecast

Almanac

Astronomy

Mar. 29, 2015 Rise Set
Actual Time
Civil Twilight
Nautical Twilight
Astronomical Twilight
Moon
Length of Visible Light
Length of Day
Tomorrow will be .
, % of the Moon is Illuminated

Today's Extremes

State Highs State Lows

Community

WunderPhotos

Upload Photos

1,809,405 photos uploaded!

WunderBlogs® & News

Nearby

Air Quality

  Air Quality AQ Index Pollutant
Not available.

Snow Depth

Station Depth Elevation

Earthquake Activity

City Distance Mag. Time & Date
Minimum magnitude displayed is 2.5.

Coastal Water Temperatures

Place Temperature

Stations

Nearby Weather Stations

Station Location Temp. Windchill Dew Point Humidity Wind Precip. Elev Updated Type